Naikai2 — JD2433 — position and weather

sailwx.info

Track history (hours):
 
Tides and Currents Weather Stations Pressure Air Temp Water Temp Dewpoint Dewpoint Depression Visibility Wind Speed Wind Dir Waves Ship Positions

Naikai2

Last reported at 2017-Oct-22 20:30 UTC. Time now 2017-Oct-22 20:58 UTC.
Position N 34°42' E 135°13'.

Length 28 m; draft 2.2 m.

Type: Other ship. MMSI: 431000283.

Date/timePositionNaut miles runAvg speedWind from/ knotsBaromVisibWave heightAir tempDewpointWater temp
2017-Oct-22 20:30N 34°42' E 135°13'0 0.0
2017-Oct-22 20:00N 34°42' E 135°13'0 0.0
2017-Oct-22 19:30N 34°42' E 135°13'0 0.0
2017-Oct-22 19:00N 34°42' E 135°13'0 0.0
2017-Oct-22 18:30N 34°42' E 135°13'0 0.0
2017-Oct-22 18:00N 34°42' E 135°13'0 0.0
2017-Oct-22 17:30N 34°42' E 135°13'0 0.0
2017-Oct-22 17:00N 34°42' E 135°13'0 0.0
2017-Oct-22 16:30N 34°42' E 135°13'0 0.0
2017-Oct-22 16:00N 34°42' E 135°13'0 0.0
2017-Oct-22 15:31N 34°42' E 135°13'0 0.0
2017-Oct-22 15:00N 34°42' E 135°13'0 0.0
2017-Oct-22 14:30N 34°42' E 135°13'0 0.0
2017-Oct-22 14:00N 34°42' E 135°13'0 0.0
2017-Oct-22 13:30N 34°42' E 135°13'0 0.0
2017-Oct-22 13:01N 34°42' E 135°13'0 0.0
2017-Oct-22 12:30N 34°42' E 135°13'0 0.0
2017-Oct-22 12:00N 34°42' E 135°13'0 0.0
2017-Oct-22 11:30N 34°42' E 135°13'0 0.0
2017-Oct-22 11:00N 34°42' E 135°13'0 0.0
2017-Oct-22 01:12N 34°42' E 135°13'0 0.0
2017-Oct-22 01:00N 34°42' E 135°13'3 6.3
2017-Oct-22 00:30N 34°39' E 135°11'1 0.1
2017-Oct-21 15:13N 34°39' E 135°10'313.7
2017-Oct-21 15:00N 34°36' E 135°09'714.4
2017-Oct-21 14:30N 34°29' E 135°05'8 4.6
2017-Oct-21 12:51N 34°23' E 134°60'514.5
2017-Oct-21 12:30N 34°28' E 135°02'510.6
2017-Oct-21 12:00N 34°32' E 135°05'3 5.6
2017-Oct-21 11:29N 34°35' E 135°04'5 9.9
2017-Oct-21 11:00N 34°37' E 134°58'1 0.3
2017-Oct-21 08:09N 34°37' E 134°58'213.8
2017-Oct-21 08:00N 34°37' E 135°01'611.2
2017-Oct-21 07:30N 34°37' E 135°08'2 0.5
2017-Oct-21 02:58N 34°39' E 135°10'1 2.7
2017-Oct-21 02:30N 34°40' E 135°11'1 2.6
2017-Oct-21 02:00N 34°39' E 135°10'0 0.0
2017-Oct-21 01:30N 34°39' E 135°10'0 0.0
2017-Oct-21 01:00N 34°39' E 135°10'0 0.0
2017-Oct-21 00:30N 34°39' E 135°10'  
2017-Oct-18 05:43N 34°37' E 135°09'314.8
2017-Oct-18 05:30N 34°34' E 135°08'8 3.4
2017-Oct-18 03:00N 34°26' E 135°04'815.1
2017-Oct-18 02:30N 34°31' E 135°11'713.4
2017-Oct-18 02:00N 34°33' E 135°19'4 8.5
2017-Oct-18 01:30N 34°33' E 135°24'1 1.6
2017-Oct-18 01:00N 34°33' E 135°25'510.5
2017-Oct-18 00:30N 34°34' E 135°19'713.5
2017-Oct-18 00:00N 34°38' E 135°12'2 0.4
2017-Oct-17 20:09N 34°38' E 135°10'213.4
2017-Oct-17 20:00N 34°37' E 135°08'712.9
2017-Oct-17 19:29N 34°38' E 134°60'2 3.8
2017-Oct-17 19:00N 34°37' E 135°02'4 7.7
2017-Oct-17 18:30N 34°35' E 135°06'3 5.5
2017-Oct-17 18:00N 34°36' E 135°09'3 5.7
2017-Oct-17 17:30N 34°39' E 135°10'1 0.1
2017-Oct-17 09:19N 34°38' E 135°09'413.5
2017-Oct-17 09:00N 34°36' E 135°05'4 2.9
2017-Oct-17 07:45N 34°37' E 135°01'415.1
2017-Oct-17 07:31N 34°37' E 135°06'4 8.1
2017-Oct-17 07:00N 34°39' E 135°10'0 0.0
2017-Oct-17 06:31N 34°39' E 135°10'0 0.0
2017-Oct-17 06:00N 34°39' E 135°10'1 0.3
2017-Oct-17 03:00N 34°39' E 135°11'1 2.7
2017-Oct-17 02:30N 34°40' E 135°11'5 9.0
2017-Oct-17 02:00N 34°38' E 135°16'815.5
2017-Oct-17 01:30N 34°34' E 135°24'1 2.9
2017-Oct-17 01:00N 34°33' E 135°25'4 8.1
2017-Oct-17 00:29N 34°33' E 135°20'5 9.8
2017-Oct-17 00:00N 34°31' E 135°15'5 9.8
2017-Oct-16 23:30N 34°28' E 135°10'1612.4
2017-Oct-16 22:14N 34°15' E 134°59'210.7
2017-Oct-16 22:00N 34°13' E 134°59'3 4.8
2017-Oct-16 21:27N 34°14' E 135°02'813.8
2017-Oct-16 20:53N 34°22' E 135°06'614.3
2017-Oct-16 20:27N 34°27' E 135°08'715.0
2017-Oct-16 20:00N 34°34' E 135°09'510.1
2017-Oct-16 19:30N 34°39' E 135°10'1 0.1
2017-Oct-16 06:08N 34°38' E 135°10'215.0
2017-Oct-16 06:00N 34°37' E 135°08'7 4.8
2017-Oct-16 04:35N 34°37' E 135°00'1 8.7
2017-Oct-16 04:30N 34°36' E 135°01'0 0.1
2017-Oct-16 04:00N 34°36' E 135°01'0 0.0
2017-Oct-16 03:30N 34°36' E 135°01'0 0.0
2017-Oct-16 02:59N 34°36' E 135°01'0 0.1
2017-Oct-16 02:30N 34°36' E 135°01'2 4.5
2017-Oct-16 02:00N 34°37' E 134°58'510.8
2017-Oct-16 01:30N 34°36' E 135°05'4 7.7
2017-Oct-16 01:00N 34°37' E 135°09'2 4.6
2017-Oct-16 00:30N 34°39' E 135°10'0 0.0
2017-Oct-16 00:01N 34°39' E 135°10'0 0.0
2017-Oct-15 23:30N 34°39' E 135°10'2 0.1
2017-Oct-14 18:24N 34°38' E 135°09'713.2
2017-Oct-14 17:54N 34°38' E 135°01'1 2.1
2017-Oct-14 17:26N 34°37' E 135°01'511.2
2017-Oct-14 17:00N 34°35' E 135°06'3 5.4
2017-Oct-14 16:29N 34°32' E 135°07'4 8.4
2017-Oct-14 16:00N 34°28' E 135°05'613.0
2017-Oct-14 15:30N 34°22' E 135°02'812.7
2017-Oct-14 14:54N 34°15' E 134°59'512.0
2017-Oct-14 14:30N 34°10' E 134°59'5 9.0
2017-Oct-14 14:00N 34°14' E 135°02'812.4
2017-Oct-14 13:23N 34°21' E 135°05'615.4
2017-Oct-14 13:00N 34°27' E 135°08'815.3
2017-Oct-14 12:30N 34°34' E 135°09'510.0
2017-Oct-14 12:01N 34°39' E 135°10'  
Track history (hours):
 
Tides and Currents Weather Stations Pressure Air Temp Water Temp Dewpoint Dewpoint Depression Visibility Wind Speed Wind Dir Waves Ship Positions

Naikai2

Last reported at 2017-Oct-22 20:30 UTC. Time now 2017-Oct-22 20:58 UTC.
Position N 34°42' E 135°13'.

Length 28 m; draft 2.2 m.

Type: Other ship. MMSI: 431000283.

Date/timePositionNaut miles runAvg speedWind from/ knotsBaromVisibWave heightAir tempDewpointWater temp
2017-Oct-22 20:30N 34°42' E 135°13'0 0.0
2017-Oct-22 20:00N 34°42' E 135°13'0 0.0
2017-Oct-22 19:30N 34°42' E 135°13'0 0.0
2017-Oct-22 19:00N 34°42' E 135°13'0 0.0
2017-Oct-22 18:30N 34°42' E 135°13'0 0.0
2017-Oct-22 18:00N 34°42' E 135°13'0 0.0
2017-Oct-22 17:30N 34°42' E 135°13'0 0.0
2017-Oct-22 17:00N 34°42' E 135°13'0 0.0
2017-Oct-22 16:30N 34°42' E 135°13'0 0.0
2017-Oct-22 16:00N 34°42' E 135°13'0 0.0
2017-Oct-22 15:31N 34°42' E 135°13'0 0.0
2017-Oct-22 15:00N 34°42' E 135°13'0 0.0
2017-Oct-22 14:30N 34°42' E 135°13'0 0.0
2017-Oct-22 14:00N 34°42' E 135°13'0 0.0
2017-Oct-22 13:30N 34°42' E 135°13'0 0.0
2017-Oct-22 13:01N 34°42' E 135°13'0 0.0
2017-Oct-22 12:30N 34°42' E 135°13'0 0.0
2017-Oct-22 12:00N 34°42' E 135°13'0 0.0
2017-Oct-22 11:30N 34°42' E 135°13'0 0.0
2017-Oct-22 11:00N 34°42' E 135°13'0 0.0
2017-Oct-22 01:12N 34°42' E 135°13'0 0.0
2017-Oct-22 01:00N 34°42' E 135°13'3 6.3
2017-Oct-22 00:30N 34°39' E 135°11'1 0.1
2017-Oct-21 15:13N 34°39' E 135°10'313.7
2017-Oct-21 15:00N 34°36' E 135°09'714.4
2017-Oct-21 14:30N 34°29' E 135°05'8 4.6
2017-Oct-21 12:51N 34°23' E 134°60'514.5
2017-Oct-21 12:30N 34°28' E 135°02'510.6
2017-Oct-21 12:00N 34°32' E 135°05'3 5.6
2017-Oct-21 11:29N 34°35' E 135°04'5 9.9
2017-Oct-21 11:00N 34°37' E 134°58'1 0.3
2017-Oct-21 08:09N 34°37' E 134°58'213.8
2017-Oct-21 08:00N 34°37' E 135°01'611.2
2017-Oct-21 07:30N 34°37' E 135°08'2 0.5
2017-Oct-21 02:58N 34°39' E 135°10'1 2.7
2017-Oct-21 02:30N 34°40' E 135°11'1 2.6
2017-Oct-21 02:00N 34°39' E 135°10'0 0.0
2017-Oct-21 01:30N 34°39' E 135°10'0 0.0
2017-Oct-21 01:00N 34°39' E 135°10'0 0.0
2017-Oct-21 00:30N 34°39' E 135°10'  
2017-Oct-18 05:43N 34°37' E 135°09'314.8
2017-Oct-18 05:30N 34°34' E 135°08'8 3.4
2017-Oct-18 03:00N 34°26' E 135°04'815.1
2017-Oct-18 02:30N 34°31' E 135°11'713.4
2017-Oct-18 02:00N 34°33' E 135°19'4 8.5
2017-Oct-18 01:30N 34°33' E 135°24'1 1.6
2017-Oct-18 01:00N 34°33' E 135°25'510.5
2017-Oct-18 00:30N 34°34' E 135°19'713.5
2017-Oct-18 00:00N 34°38' E 135°12'2 0.4
2017-Oct-17 20:09N 34°38' E 135°10'213.4
2017-Oct-17 20:00N 34°37' E 135°08'712.9
2017-Oct-17 19:29N 34°38' E 134°60'2 3.8
2017-Oct-17 19:00N 34°37' E 135°02'4 7.7
2017-Oct-17 18:30N 34°35' E 135°06'3 5.5
2017-Oct-17 18:00N 34°36' E 135°09'3 5.7
2017-Oct-17 17:30N 34°39' E 135°10'1 0.1
2017-Oct-17 09:19N 34°38' E 135°09'413.5
2017-Oct-17 09:00N 34°36' E 135°05'4 2.9
2017-Oct-17 07:45N 34°37' E 135°01'415.1
2017-Oct-17 07:31N 34°37' E 135°06'4 8.1
2017-Oct-17 07:00N 34°39' E 135°10'0 0.0
2017-Oct-17 06:31N 34°39' E 135°10'0 0.0
2017-Oct-17 06:00N 34°39' E 135°10'1 0.3
2017-Oct-17 03:00N 34°39' E 135°11'1 2.7
2017-Oct-17 02:30N 34°40' E 135°11'5 9.0
2017-Oct-17 02:00N 34°38' E 135°16'815.5
2017-Oct-17 01:30N 34°34' E 135°24'1 2.9
2017-Oct-17 01:00N 34°33' E 135°25'4 8.1
2017-Oct-17 00:29N 34°33' E 135°20'5 9.8
2017-Oct-17 00:00N 34°31' E 135°15'5 9.8
2017-Oct-16 23:30N 34°28' E 135°10'1612.4
2017-Oct-16 22:14N 34°15' E 134°59'210.7
2017-Oct-16 22:00N 34°13' E 134°59'3 4.8
2017-Oct-16 21:27N 34°14' E 135°02'813.8
2017-Oct-16 20:53N 34°22' E 135°06'614.3
2017-Oct-16 20:27N 34°27' E 135°08'715.0
2017-Oct-16 20:00N 34°34' E 135°09'510.1
2017-Oct-16 19:30N 34°39' E 135°10'1 0.1
2017-Oct-16 06:08N 34°38' E 135°10'215.0
2017-Oct-16 06:00N 34°37' E 135°08'7 4.8
2017-Oct-16 04:35N 34°37' E 135°00'1 8.7
2017-Oct-16 04:30N 34°36' E 135°01'0 0.1
2017-Oct-16 04:00N 34°36' E 135°01'0 0.0
2017-Oct-16 03:30N 34°36' E 135°01'0 0.0
2017-Oct-16 02:59N 34°36' E 135°01'0 0.1
2017-Oct-16 02:30N 34°36' E 135°01'2 4.5
2017-Oct-16 02:00N 34°37' E 134°58'510.8
2017-Oct-16 01:30N 34°36' E 135°05'4 7.7
2017-Oct-16 01:00N 34°37' E 135°09'2 4.6
2017-Oct-16 00:30N 34°39' E 135°10'0 0.0
2017-Oct-16 00:01N 34°39' E 135°10'0 0.0
2017-Oct-15 23:30N 34°39' E 135°10'2 0.1
2017-Oct-14 18:24N 34°38' E 135°09'713.2
2017-Oct-14 17:54N 34°38' E 135°01'1 2.1
2017-Oct-14 17:26N 34°37' E 135°01'511.2
2017-Oct-14 17:00N 34°35' E 135°06'3 5.4
2017-Oct-14 16:29N 34°32' E 135°07'4 8.4
2017-Oct-14 16:00N 34°28' E 135°05'613.0
2017-Oct-14 15:30N 34°22' E 135°02'812.7
2017-Oct-14 14:54N 34°15' E 134°59'512.0
2017-Oct-14 14:30N 34°10' E 134°59'5 9.0
2017-Oct-14 14:00N 34°14' E 135°02'812.4
2017-Oct-14 13:23N 34°21' E 135°05'615.4
2017-Oct-14 13:00N 34°27' E 135°08'815.3
2017-Oct-14 12:30N 34°34' E 135°09'510.0
2017-Oct-14 12:01N 34°39' E 135°10'  

Dump ship's entire track history